< Typhoon 199029 1991 Season Typhoon 199102 >
Typhoon 199101 (SHARON)
General InformationTrack Information on Google MapsDetailed Wind InformationList of All Images || Disaster Info.ResourceGoogle EarthGE AnimationAtom FeedGeoJSON
Detalied Best Track (Time Zone = UTC)
Year Month Day Hour Lat. Long. Pressure (hPa) Wind (kt) Class Image Chart
1991 3 5 00 4.0 152.0 1004 0 2 Image Chart
1991 3 5 06 4.0 151.0 1002 0 2 Image Chart
1991 3 5 12 4.0 150.0 1002 0 2 Image Chart
1991 3 5 18 4.5 149.0 1002 0 2 Image Chart
1991 3 6 00 5.0 148.5 1002 0 2 Image Chart
1991 3 6 06 5.3 148.0 1000 0 2 Image Chart
1991 3 6 12 5.6 147.3 1000 0 2 Image Chart
1991 3 6 18 5.8 146.6 1000 0 2 Image Chart
1991 3 7 00 6.0 146.0 996 35 3 Image Chart
1991 3 7 06 6.0 145.5 996 40 3 Image Chart
1991 3 7 12 6.0 145.0 996 40 3 Image Chart
1991 3 7 18 6.0 144.5 992 40 3 Image Chart
1991 3 8 00 6.0 144.1 992 45 3 Image Chart
1991 3 8 06 6.2 143.3 990 45 3 Image Chart
1991 3 8 12 6.3 142.6 990 45 3 Image Chart
1991 3 8 18 6.3 141.8 990 45 3 Image Chart
1991 3 9 00 6.3 140.9 985 50 4 Image Chart
1991 3 9 06 6.3 140.1 985 50 4 Image Chart
1991 3 9 12 6.4 139.3 985 50 4 Image Chart
1991 3 9 18 6.5 138.5 985 50 4 Image Chart
1991 3 10 00 6.7 137.6 985 50 4 Image Chart
1991 3 10 06 6.8 136.8 985 50 4 Image Chart
1991 3 10 12 6.9 136.0 985 50 4 Image Chart
1991 3 10 18 6.9 135.1 985 50 4 Image Chart
1991 3 11 00 6.9 134.2 985 50 4 Image Chart
1991 3 11 06 6.9 133.4 990 45 3 Image Chart
1991 3 11 12 7.0 132.6 990 45 3 Image Chart
1991 3 11 18 7.3 131.8 990 45 3 Image Chart
1991 3 12 00 7.6 130.9 994 40 3 Image Chart
1991 3 12 06 7.9 130.0 994 40 3 Image Chart
1991 3 12 12 8.4 128.9 994 40 3 Image Chart
1991 3 12 18 8.8 127.7 998 35 3 Image Chart
1991 3 13 00 9.5 126.0 1000 0 2 Image Chart
1991 3 13 06 10.5 125.0 1002 0 2 Image Chart
1991 3 13 12 11.0 124.0 1004 0 2 Image Chart
1991 3 13 18 11.0 122.5 1006 0 2 Image Chart
1991 3 14 00 11.0 121.0 1008 0 2 Image Chart
1991 3 14 06 11.0 119.5 1006 0 2 Image Chart
1991 3 14 12 11.0 118.0 1006 0 2 Image Chart
1991 3 14 18 11.0 116.5 1006 0 2 Image Chart
1991 3 15 00 11.0 115.0 1004 0 2 Image Chart
1991 3 15 06 11.0 113.5 1006 0 2 Image Chart
1991 3 15 12 11.0 112.0 1008 0 2 Image Chart
1991 3 15 18 11.0 111.0 1008 0 2 Image Chart
1991 3 16 00 11.0 110.0 1010 0 2 Image Chart
1991 3 16 06 11.0 108.5 1008 0 2 Image Chart
Japan Meteorological Agency Best Track Data | Correction Date : 1992-01-04
< Typhoon 199029 1991 Season Typhoon 199102 >

Help